Time;durP1;ratioP1;P1;durP2;ratioP2;P2;SDS_P1;SDS_P2;PMS_P1;PMS_P2;Temp;Humidity;BMP_temperature;BMP_pressure;BME280_temperature;BME280_humidity;BME280_pressure;Samples;Min_cycle;Max_cycle;Signal;HPM_P1;HPM_P2
2021/12/11 00:01:39;;;;;;;16.67;7.90;;;;;;;1.81;79.88;98573.47;4935201;29;20146;-62
2021/12/11 00:04:17;;;;;;;17.48;7.80;;;;;;;1.91;80.19;98575.31;4936263;29;20383;-63
2021/12/11 00:06:52;;;;;;;12.93;6.38;;;;;;;1.96;81.03;98574.56;4936015;29;20052;-63
2021/12/11 00:09:28;;;;;;;15.88;6.90;;;;;;;2.07;80.47;98584.78;4936247;29;20054;-64
2021/12/11 00:12:06;;;;;;;13.48;6.45;;;;;;;2.00;80.00;98580.47;4935973;29;20058;-63
2021/12/11 00:14:41;;;;;;;13.30;6.53;;;;;;;1.97;80.94;98575.41;4935897;29;20054;-63
2021/12/11 00:17:12;;;;;;;16.95;7.57;;;;;;;1.92;80.06;98582.06;4935970;29;20043;-63
2021/12/11 00:19:42;;;;;;;16.13;7.30;;;;;;;1.90;80.08;98582.00;4936253;29;20507;-64
2021/12/11 00:22:15;;;;;;;;;;;;;;;1.86;80.91;98590.34;4936233;29;20075;-63
2021/12/11 00:24:48;;;;;;;15.23;5.82;;;;;;;1.77;80.08;98594.38;4936096;29;20523;-63
2021/12/11 00:27:25;;;;;;;15.02;6.60;;;;;;;1.79;80.88;98598.63;4935873;29;20137;-63
2021/12/11 00:29:55;;;;;;;14.90;6.93;;;;;;;1.68;81.45;98609.31;4935860;29;20135;-62
2021/12/11 00:32:32;;;;;;;15.93;7.15;;;;;;;1.66;81.59;98608.44;4936367;29;20401;-62
2021/12/11 00:35:08;;;;;;;18.05;7.03;;;;;;;1.69;81.47;98616.03;4935801;29;20051;-62
2021/12/11 00:37:44;;;;;;;16.55;6.68;;;;;;;1.66;81.79;98621.00;4936630;29;20058;-62
2021/12/11 00:40:24;;;;;;;16.45;7.28;;;;;;;1.70;81.29;98617.72;4936076;29;20059;-64
2021/12/11 00:43:02;;;;;;;17.42;6.40;;;;;;;1.69;81.99;98621.06;4935700;29;20056;-62
2021/12/11 00:45:37;;;;;;;17.95;9.02;;;;;;;1.71;82.18;98625.28;4937866;29;20051;-63
2021/12/11 00:48:10;;;;;;;14.18;6.43;;;;;;;1.78;81.74;98632.13;4939064;29;20070;-64
2021/12/11 00:50:48;;;;;;;16.52;6.63;;;;;;;1.78;81.28;98636.28;4939107;29;20047;-64
2021/12/11 00:53:24;;;;;;;15.23;6.78;;;;;;;1.88;82.49;98638.16;4939313;29;20051;-63
2021/12/11 00:55:55;;;;;;;17.52;7.13;;;;;;;1.91;81.79;98643.22;4922296;29;20122;-63
2021/12/11 00:58:29;;;;;;;16.05;6.78;;;;;;;1.98;81.91;98645.88;4939240;29;20048;-63
2021/12/11 01:01:01;;;;;;;20.75;7.60;;;;;;;2.01;81.46;98640.06;4937966;29;20056;-62
2021/12/11 01:03:39;;;;;;;18.67;8.70;;;;;;;2.07;81.90;98650.19;4938863;29;20048;-63
2021/12/11 01:06:17;;;;;;;15.85;7.90;;;;;;;2.19;82.33;98650.41;4938761;29;20130;-62
2021/12/11 01:08:57;;;;;;;19.23;7.95;;;;;;;2.22;81.31;98649.59;4938721;29;20572;-63
2021/12/11 01:11:32;;;;;;;16.35;7.13;;;;;;;2.23;81.15;98657.16;4938974;29;20043;-63
2021/12/11 01:14:16;;;;;;;16.50;7.00;;;;;;;2.28;81.34;98665.63;4938657;29;20402;-63
2021/12/11 01:16:53;;;;;;;12.45;6.40;;;;;;;2.23;81.34;98667.22;4938776;29;20102;-63
2021/12/11 01:19:59;;;;;;;17.70;7.75;;;;;;;2.28;80.55;98670.66;4921815;29;20052;-64
2021/12/11 01:22:36;;;;;;;13.15;7.22;;;;;;;2.20;80.67;98677.25;4938470;29;20554;-63
2021/12/11 01:25:09;;;;;;;15.02;7.15;;;;;;;2.11;80.85;98688.84;4938399;29;20130;-62
2021/12/11 01:27:44;;;;;;;21.17;7.95;;;;;;;2.01;81.15;98687.84;4938681;29;20505;-64
2021/12/11 01:30:23;;;;;;;18.00;7.93;;;;;;;1.91;81.23;98693.53;4938377;29;20055;-64
2021/12/11 01:32:55;;;;;;;14.48;6.68;;;;;;;1.84;81.08;98694.25;4938312;29;20059;-63
2021/12/11 01:35:26;;;;;;;17.75;7.15;;;;;;;1.89;81.65;98702.75;4938458;29;20518;-63
2021/12/11 01:38:04;;;;;;;15.38;6.88;;;;;;;1.91;81.65;98703.59;4938515;29;20493;-64
2021/12/11 01:40:37;;;;;;;14.70;7.70;;;;;;;1.88;80.99;98708.56;4938485;29;20572;-64
2021/12/11 01:43:08;;;;;;;15.93;6.75;;;;;;;1.76;81.77;98714.22;4938039;29;20055;-62
2021/12/11 01:45:44;;;;;;;16.42;6.43;;;;;;;1.70;81.72;98713.28;4938317;29;20497;-62
2021/12/11 01:48:18;;;;;;;16.50;7.50;;;;;;;1.69;81.99;98709.91;4938311;29;20039;-63
2021/12/11 01:50:56;;;;;;;18.75;7.43;;;;;;;1.75;82.28;98719.25;4937990;29;20502;-62
2021/12/11 01:53:30;;;;;;;16.48;6.00;;;;;;;1.69;82.00;98711.56;4937886;29;20044;-63
2021/12/11 01:56:02;;;;;;;13.90;6.47;;;;;;;1.66;81.94;98711.50;4937397;29;20048;-62
2021/12/11 01:58:37;;;;;;;14.55;5.90;;;;;;;1.65;82.04;98724.91;4938097;29;20056;-62
2021/12/11 02:01:17;;;;;;;16.65;6.82;;;;;;;1.60;82.19;98717.28;4936872;29;20063;-62
2021/12/11 02:03:52;;;;;;;23.52;7.75;;;;;;;1.65;82.48;98719.88;4938032;29;20494;-63
2021/12/11 02:06:22;;;;;;;13.98;5.80;;;;;;;1.60;82.56;98723.97;4937661;29;20111;-62
2021/12/11 02:08:54;;;;;;;11.32;5.25;;;;;;;1.53;82.20;98709.59;4937646;29;20071;-63
2021/12/11 02:11:30;;;;;;;14.75;5.47;;;;;;;1.49;82.09;98720.44;4937903;29;20090;-64
2021/12/11 02:14:06;;;;;;;15.32;6.95;;;;;;;1.50;82.08;98712.91;4937823;29;20122;-64
2021/12/11 02:16:43;;;;;;;13.63;6.40;;;;;;;1.59;82.79;98710.56;4937445;29;20058;-63
2021/12/11 02:19:20;;;;;;;17.40;8.07;;;;;;;1.63;82.42;98719.03;4937482;29;20051;-64
2021/12/11 02:21:56;;;;;;;17.10;6.57;;;;;;;1.70;82.90;98723.34;4937625;29;20048;-62
2021/12/11 02:24:36;;;;;;;13.75;6.10;;;;;;;1.70;82.43;98731.75;4937656;29;20132;-64
2021/12/11 02:27:10;;;;;;;;;;;;;;;1.69;82.83;98730.03;4937664;29;20076;-63
2021/12/11 02:29:45;;;;;;;18.55;6.88;;;;;;;1.75;83.14;98736.84;4937323;29;20373;-63
2021/12/11 02:32:27;;;;;;;17.05;6.45;;;;;;;1.74;82.77;98730.13;4937719;29;20494;-64
2021/12/11 02:35:08;;;;;;;17.88;6.50;;;;;;;1.72;81.98;98732.63;4937556;29;20043;-64
2021/12/11 02:37:49;;;;;;;15.05;6.85;;;;;;;1.68;82.19;98740.06;4937379;29;20135;-63
2021/12/11 02:40:26;;;;;;;16.45;7.72;;;;;;;1.80;83.13;98755.41;4937058;29;20126;-64
2021/12/11 02:43:05;;;;;;;17.58;6.63;;;;;;;1.88;82.79;98751.34;4936965;29;20102;-64
2021/12/11 02:45:59;;;;;;;17.58;7.68;;;;;;;2.03;82.64;98749.97;4934495;29;20055;-64
2021/12/11 02:48:33;;;;;;;10.68;4.90;;;;;;;2.09;82.53;98754.22;4936916;29;20052;-63
2021/12/11 02:51:08;;;;;;;16.05;6.72;;;;;;;2.03;81.95;98759.16;4936901;29;20048;-64
2021/12/11 02:53:42;;;;;;;18.92;6.57;;;;;;;1.91;82.40;98763.97;4937421;29;20052;-64
2021/12/11 02:56:18;;;;;;;16.38;6.38;;;;;;;1.91;82.76;98752.25;4937058;29;20048;-64
2021/12/11 02:59:22;;;;;;;16.23;6.57;;;;;;;1.95;82.60;98770.75;4936671;29;20051;-62
2021/12/11 03:01:57;;;;;;;17.98;7.68;;;;;;;2.01;81.89;98766.69;4936083;29;20121;-62
2021/12/11 03:04:37;;;;;;;17.95;8.10;;;;;;;2.11;81.99;98762.69;4936989;29;20052;-62
2021/12/11 03:07:12;;;;;;;16.15;6.70;;;;;;;2.11;81.38;98772.75;4936235;29;20081;-62
2021/12/11 03:09:50;;;;;;;15.82;7.32;;;;;;;2.07;82.15;98776.00;4936856;29;20138;-63
2021/12/11 03:12:25;;;;;;;16.67;5.93;;;;;;;1.91;81.38;98769.00;4936881;29;20070;-64
2021/12/11 03:14:57;;;;;;;14.02;6.32;;;;;;;1.78;81.97;98783.00;4936836;29;20409;-64
2021/12/11 03:17:30;;;;;;;11.88;5.28;;;;;;;1.77;81.60;98770.41;4936828;29;20054;-63
2021/12/11 03:20:02;;;;;;;18.88;6.75;;;;;;;1.88;82.05;98789.06;4936395;29;20075;-62
2021/12/11 03:22:35;;;;;;;15.60;6.30;;;;;;;2.04;81.52;98791.03;4936710;29;20048;-62
2021/12/11 03:25:14;;;;;;;14.77;6.88;;;;;;;2.10;80.99;98786.13;4936417;29;20062;-62
2021/12/11 03:27:48;;;;;;;17.57;7.17;;;;;;;2.17;81.21;98782.91;4936430;29;20127;-62
2021/12/11 03:30:24;;;;;;;18.65;6.57;;;;;;;2.17;80.86;98792.13;4919690;29;20334;-62
2021/12/11 03:32:59;;;;;;;18.10;7.30;;;;;;;2.16;80.67;98791.25;4936582;29;20043;-62
2021/12/11 03:35:31;;;;;;;18.25;8.13;;;;;;;2.25;81.12;98783.91;4936325;29;20051;-62
2021/12/11 03:38:04;;;;;;;16.33;7.43;;;;;;;2.12;80.65;98788.66;4936329;29;20107;-63
2021/12/11 03:40:38;;;;;;;17.00;7.90;;;;;;;2.11;80.58;98792.88;4936207;29;20107;-63
2021/12/11 03:43:13;;;;;;;17.42;7.20;;;;;;;2.20;80.83;98790.50;4936436;29;20048;-64
2021/12/11 03:45:49;;;;;;;15.10;7.32;;;;;;;2.27;80.29;98794.84;4936241;29;20048;-64
2021/12/11 03:48:26;;;;;;;17.30;7.75;;;;;;;2.25;79.99;98798.16;4936218;29;20071;-64
2021/12/11 03:51:03;;;;;;;17.50;7.60;;;;;;;2.17;80.91;98798.00;4936190;29;20062;-62
2021/12/11 03:53:33;;;;;;;20.00;8.20;;;;;;;2.22;80.80;98798.09;4936204;29;20052;-62
2021/12/11 03:56:10;;;;;;;18.70;7.20;;;;;;;2.30;80.61;98789.88;4936155;29;20064;-62
2021/12/11 03:58:49;;;;;;;17.52;8.18;;;;;;;2.29;80.57;98798.22;4936139;29;20131;-62
2021/12/11 04:01:26;;;;;;;18.42;7.18;;;;;;;2.32;80.16;98788.22;4935553;29;20055;-63
2021/12/11 04:04:02;;;;;;;21.77;9.27;;;;;;;2.44;80.24;98790.94;4953840;29;20501;-62
2021/12/11 04:06:35;;;;;;;20.30;8.90;;;;;;;2.47;80.16;98783.41;4938257;29;20051;-64
2021/12/11 04:09:36;;;;;;;18.27;8.48;;;;;;;2.49;80.05;98776.75;4356247;23;20056;-68
2021/12/11 04:12:12;;;;;;;18.83;8.95;;;;;;;2.45;80.17;98769.97;4955192;29;20051;-67
2021/12/11 04:14:47;;;;;;;23.65;9.68;;;;;;;2.48;79.98;98769.16;4938254;29;20059;-68
2021/12/11 04:17:25;;;;;;;20.50;9.15;;;;;;;2.48;80.30;98764.13;4955199;29;20154;-67
2021/12/11 04:20:06;;;;;;;23.50;9.23;;;;;;;2.46;80.01;98770.81;4957989;28;20058;-67
2021/12/11 04:22:36;;;;;;;21.10;10.48;;;;;;;2.38;80.04;98778.22;4958991;29;20054;-67
2021/12/11 04:25:09;;;;;;;21.73;9.00;;;;;;;2.40;80.50;98785.84;4958968;29;20074;-68
2021/12/11 04:27:44;;;;;;;20.85;8.93;;;;;;;2.37;80.67;98791.66;4958672;29;20054;-68
2021/12/11 04:30:16;;;;;;;18.42;8.38;;;;;;;2.33;79.89;98789.03;4958539;29;20126;-68
2021/12/11 04:32:51;;;;;;;16.88;8.52;;;;;;;2.38;80.01;98793.34;4958607;29;20058;-67
2021/12/11 04:35:27;;;;;;;16.40;9.07;;;;;;;2.43;80.11;98791.75;4958528;29;20408;-69
2021/12/11 04:38:01;;;;;;;19.38;8.63;;;;;;;2.37;80.43;98811.81;4959084;29;20047;-67
2021/12/11 04:40:36;;;;;;;19.52;9.15;;;;;;;2.38;80.98;98812.63;4958377;29;20066;-67
2021/12/11 04:43:14;;;;;;;21.35;8.48;;;;;;;2.38;81.21;98818.50;4958255;29;20047;-66
2021/12/11 04:45:49;;;;;;;20.95;8.55;;;;;;;2.39;81.22;98820.22;4941771;29;20055;-68
2021/12/11 04:48:32;;;;;;;18.83;8.52;;;;;;;2.34;80.57;98820.94;4958316;29;20107;-67
2021/12/11 04:51:13;;;;;;;19.77;8.35;;;;;;;2.28;81.30;98826.72;4958244;29;20519;-67
2021/12/11 04:53:59;;;;;;;21.17;9.02;;;;;;;2.31;81.47;98831.81;4958509;29;20492;-66
2021/12/11 04:59:52;;;;;;;18.10;7.32;;;;;;;2.34;80.96;98844.47;4918389;29;20044;-67
2021/12/11 05:02:55;;;;;;;17.35;7.53;;;;;;;2.29;80.86;98843.53;4958211;29;20497;-67
2021/12/11 05:05:47;;;;;;;18.67;7.25;;;;;;;2.32;81.01;98848.63;4956831;29;20102;-68
2021/12/11 05:08:58;;;;;;;20.90;8.90;;;;;;;2.30;81.31;98845.25;4957057;29;20163;-66
2021/12/11 05:11:33;;;;;;;18.77;8.93;;;;;;;2.28;81.77;98851.88;4957554;29;20050;-69
2021/12/11 05:14:09;;;;;;;19.80;9.23;;;;;;;2.29;81.14;98853.59;4957808;29;20047;-67
2021/12/11 05:16:43;;;;;;;21.60;9.63;;;;;;;2.26;81.03;98848.50;4957754;29;20051;-66
2021/12/11 05:19:16;;;;;;;20.08;9.27;;;;;;;2.28;81.15;98849.38;4957705;29;20055;-67
2021/12/11 05:21:49;;;;;;;21.67;9.15;;;;;;;2.28;81.46;98846.03;4957627;29;20051;-67
2021/12/11 05:24:21;;;;;;;19.13;9.55;;;;;;;2.28;81.47;98846.84;4940545;29;20404;-66
2021/12/11 05:26:54;;;;;;;21.73;10.20;;;;;;;2.29;82.24;98848.56;4958190;29;20481;-66
2021/12/11 05:29:26;;;;;;;21.80;9.85;;;;;;;2.26;81.72;98851.00;4957561;29;20055;-67
2021/12/11 05:32:01;;;;;;;24.63;10.05;;;;;;;2.29;81.25;98853.59;4957356;29;20054;-66
2021/12/11 05:34:34;;;;;;;19.67;8.57;;;;;;;2.32;81.33;98853.66;4957454;29;20043;-67
2021/12/11 05:37:06;;;;;;;20.55;8.77;;;;;;;2.32;81.63;98845.25;4957717;29;20126;-67
2021/12/11 05:39:39;;;;;;;21.20;9.82;;;;;;;2.31;81.19;98856.97;4957373;29;20055;-67
2021/12/11 05:42:09;;;;;;;19.35;8.48;;;;;;;2.40;81.78;98851.28;4957555;29;20055;-67
2021/12/11 05:44:42;;;;;;;19.60;9.07;;;;;;;2.39;81.87;98854.63;4957209;29;20058;-67
2021/12/11 05:47:17;;;;;;;20.30;8.52;;;;;;;2.34;81.69;98852.00;4957490;29;20126;-68
2021/12/11 05:49:50;;;;;;;17.73;9.00;;;;;;;2.35;81.51;98850.34;4957158;29;20047;-67
2021/12/11 05:52:20;;;;;;;17.13;8.18;;;;;;;2.36;81.26;98850.38;4957061;29;20054;-67
2021/12/11 05:54:50;;;;;;;22.58;8.43;;;;;;;2.34;81.04;98852.00;4957371;29;20469;-68
2021/12/11 05:57:25;;;;;;;21.92;9.23;;;;;;;2.30;81.78;98850.28;4957065;29;20062;-66
2021/12/11 05:59:58;;;;;;;16.85;8.05;;;;;;;2.33;81.48;98860.38;4957005;29;20066;-68
2021/12/11 06:02:30;;;;;;;19.42;8.88;;;;;;;2.26;81.27;98861.09;4956909;29;20133;-68
2021/12/11 06:05:04;;;;;;;20.35;9.18;;;;;;;2.28;81.29;98856.09;4956854;29;20126;-67
2021/12/11 06:07:37;;;;;;;22.08;9.07;;;;;;;2.25;80.91;98871.13;4956838;29;20110;-67
2021/12/11 06:10:13;;;;;;;20.40;9.80;;;;;;;2.24;81.90;98875.31;4956648;29;20051;-68
2021/12/11 06:12:46;;;;;;;22.05;9.80;;;;;;;2.34;81.10;98887.25;4956764;29;20501;-67
2021/12/11 06:15:16;;;;;;;19.95;9.40;;;;;;;2.28;80.89;98887.13;4956629;29;20122;-67
2021/12/11 06:17:50;;;;;;;19.05;7.25;;;;;;;2.31;81.47;98892.22;4956677;29;20106;-66
2021/12/11 06:20:26;;;;;;;20.30;9.05;;;;;;;2.29;81.05;98898.06;4956562;29;20051;-68
2021/12/11 06:22:59;;;;;;;23.75;9.38;;;;;;;2.33;81.26;98895.63;4956577;29;20071;-66
2021/12/11 06:25:33;;;;;;;23.00;8.30;;;;;;;2.29;81.60;98898.06;4956530;29;20043;-67
2021/12/11 06:28:04;;;;;;;20.30;8.90;;;;;;;2.25;81.66;98897.16;4956404;29;20138;-68
2021/12/11 06:30:38;;;;;;;17.63;7.97;;;;;;;2.30;81.86;98905.66;4956434;29;20055;-67
2021/12/11 06:33:12;;;;;;;20.38;8.32;;;;;;;2.25;81.08;98897.16;4956774;29;20465;-68
2021/12/11 06:35:48;;;;;;;16.73;7.22;;;;;;;2.25;80.90;98906.38;4956278;29;20046;-66
2021/12/11 06:38:21;;;;;;;19.13;8.00;;;;;;;2.23;81.43;98908.84;4956506;29;20055;-68
2021/12/11 06:40:52;;;;;;;20.35;8.88;;;;;;;2.23;81.25;98913.88;4956511;29;20517;-68
2021/12/11 06:43:23;;;;;;;20.65;9.48;;;;;;;2.22;81.18;98911.34;4955378;28;20055;-66
2021/12/11 06:45:57;;;;;;;19.13;8.38;;;;;;;2.26;81.49;98915.59;4956009;29;20057;-68
2021/12/11 06:48:28;;;;;;;21.15;9.23;;;;;;;2.26;81.63;98923.16;4956423;29;20050;-68
2021/12/11 06:51:02;;;;;;;22.20;9.25;;;;;;;2.32;81.49;98933.34;4956351;29;20459;-66
2021/12/11 06:53:35;;;;;;;26.35;9.38;;;;;;;2.32;82.07;98929.19;4956002;29;20090;-67
2021/12/11 06:56:10;;;;;;;21.77;9.05;;;;;;;2.37;81.27;98937.66;4956283;29;20440;-67
2021/12/11 06:58:42;;;;;;;22.05;9.73;;;;;;;2.40;81.45;98931.84;4956201;29;20056;-67
2021/12/11 07:01:15;;;;;;;21.55;9.50;;;;;;;2.33;81.76;98937.56;4956241;29;20145;-67
2021/12/11 07:03:46;;;;;;;22.75;9.07;;;;;;;2.34;81.44;98942.63;4954976;29;20051;-68
2021/12/11 07:06:17;;;;;;;20.23;9.82;;;;;;;2.42;82.10;98951.19;4955752;29;20051;-67
2021/12/11 07:08:53;;;;;;;22.50;9.63;;;;;;;2.38;81.67;98959.50;4954898;29;20078;-69
2021/12/11 07:11:24;;;;;;;26.73;11.23;;;;;;;2.39;81.89;98963.72;4938836;29;20066;-67
2021/12/11 07:13:58;;;;;;;22.90;11.07;;;;;;;2.36;81.63;98965.31;4955787;29;20485;-67
2021/12/11 07:16:31;;;;;;;25.42;11.30;;;;;;;2.41;81.26;98974.66;4955671;29;20055;-68
2021/12/11 07:19:07;;;;;;;23.30;10.90;;;;;;;2.46;81.92;98993.25;4955937;29;20485;-67
2021/12/11 07:21:40;;;;;;;26.05;11.40;;;;;;;2.43;81.81;99003.25;4955551;29;20047;-67
2021/12/11 07:24:14;;;;;;;28.50;12.30;;;;;;;2.25;81.62;99015.47;4955451;29;20074;-67
2021/12/11 07:26:49;;;;;;;25.45;11.98;;;;;;;2.27;81.23;99018.84;4955535;29;20047;-66
2021/12/11 07:29:22;;;;;;;27.60;12.73;;;;;;;2.31;81.98;99018.09;4938606;29;20410;-67
2021/12/11 07:31:55;;;;;;;31.27;12.43;;;;;;;2.34;81.12;99023.19;4955846;29;20046;-67
2021/12/11 07:34:28;;;;;;;29.08;13.40;;;;;;;2.38;81.48;99041.72;4955737;29;20548;-69
2021/12/11 07:37:02;;;;;;;37.70;17.17;;;;;;;2.43;81.50;99053.59;4955447;29;20051;-67
2021/12/11 07:39:34;;;;;;;35.80;15.48;;;;;;;2.39;81.47;99044.28;4955431;29;20130;-68
2021/12/11 07:42:05;;;;;;;33.22;14.25;;;;;;;2.17;81.65;99049.66;4955644;29;20043;-67
2021/12/11 07:44:37;;;;;;;33.40;14.38;;;;;;;2.19;81.36;99058.09;4955321;29;20102;-69
2021/12/11 07:47:10;;;;;;;35.00;13.57;;;;;;;2.14;81.27;99069.72;4955278;29;20036;-67
2021/12/11 07:49:44;;;;;;;29.15;12.85;;;;;;;2.10;82.14;99073.00;4955416;29;20124;-66
2021/12/11 07:52:16;;;;;;;31.67;13.45;;;;;;;2.11;82.41;99074.72;4955337;29;20492;-68
2021/12/11 07:54:46;;;;;;;29.70;13.05;;;;;;;2.17;82.46;99084.91;4958138;28;20050;-66
2021/12/11 07:57:18;;;;;;;30.47;13.97;;;;;;;2.33;81.53;99086.94;4959164;29;20409;-68
2021/12/11 07:59:47;;;;;;;33.70;14.68;;;;;;;2.34;81.86;99081.09;4926377;29;20062;-67
2021/12/11 08:02:17;;;;;;;35.72;15.05;;;;;;;2.39;81.99;99092.13;4959073;29;20040;-67
2021/12/11 08:04:47;;;;;;;;;;;;;;;2.44;82.18;99098.13;4959782;29;20043;-68
2021/12/11 08:07:20;;;;;;;27.63;12.82;;;;;;;2.51;81.48;99111.69;4959402;29;19957;-67
2021/12/11 08:09:52;;;;;;;31.88;15.15;;;;;;;2.62;81.13;99108.56;4958739;29;20087;-67
2021/12/11 08:12:22;;;;;;;32.63;15.27;;;;;;;2.62;81.38;99112.75;4958973;29;20409;-67
2021/12/11 08:14:54;;;;;;;31.00;13.73;;;;;;;2.63;81.87;99117.84;4959478;29;20047;-67
2021/12/11 08:17:27;;;;;;;32.72;14.45;;;;;;;2.57;81.57;99125.25;4959082;29;20405;-68
2021/12/11 08:20:01;;;;;;;31.98;13.80;;;;;;;2.58;81.18;99129.47;4958751;29;20134;-66
2021/12/11 08:22:34;;;;;;;30.20;14.20;;;;;;;2.61;81.13;99128.69;4958638;29;20130;-68
2021/12/11 08:25:08;;;;;;;27.00;12.80;;;;;;;2.66;80.99;99129.66;4958922;29;20073;-69
2021/12/11 08:27:41;;;;;;;35.22;15.30;;;;;;;2.67;81.27;99129.66;4958947;29;20071;-68
2021/12/11 08:30:11;;;;;;;31.45;13.52;;;;;;;2.72;81.49;99137.31;4958585;29;20106;-67
2021/12/11 08:32:44;;;;;;;27.52;14.00;;;;;;;2.72;81.18;99133.13;4958539;29;20055;-67
2021/12/11 08:35:18;;;;;;;28.58;13.15;;;;;;;2.78;81.46;99137.47;4958779;29;20464;-67
2021/12/11 08:37:54;;;;;;;27.20;12.85;;;;;;;2.82;81.18;99139.22;4958783;29;20504;-66
2021/12/11 08:40:30;;;;;;;31.15;13.75;;;;;;;2.93;81.07;99141.97;4958419;29;20075;-67
2021/12/11 08:43:00;;;;;;;32.60;14.68;;;;;;;2.99;80.83;99152.16;4958347;29;20055;-68
2021/12/11 08:45:45;;;;;;;30.75;15.23;;;;;;;2.92;81.30;99150.34;4958142;29;20043;-66
2021/12/11 08:48:20;;;;;;;31.88;14.63;;;;;;;3.01;81.68;99155.56;4958502;29;20059;-67
2021/12/11 08:51:01;;;;;;;31.63;14.52;;;;;;;3.06;80.88;99159.03;4958256;29;20047;-68
2021/12/11 08:53:31;;;;;;;34.15;14.65;;;;;;;3.15;81.17;99160.06;4958429;29;20047;-68
2021/12/11 08:56:01;;;;;;;30.23;14.23;;;;;;;3.15;80.86;99174.34;4958023;29;20135;-67
2021/12/11 08:58:31;;;;;;;34.20;15.40;;;;;;;3.13;81.13;99181.03;4958125;29;20142;-67
2021/12/11 09:01:07;;;;;;;35.30;15.43;;;;;;;3.21;81.07;99174.47;4957970;29;20047;-67
2021/12/11 09:03:41;;;;;;;42.90;17.98;;;;;;;3.30;80.93;99179.69;4958022;29;20429;-67
2021/12/11 09:06:22;;;;;;;34.17;15.43;;;;;;;3.28;80.14;99182.19;4956940;28;20401;-67
2021/12/11 09:08:54;;;;;;;27.88;13.77;;;;;;;3.33;80.38;99179.75;4957073;29;20062;-67
2021/12/11 09:11:30;;;;;;;30.75;14.02;;;;;;;3.35;79.88;99193.25;4958187;29;20406;-67
2021/12/11 09:14:09;;;;;;;25.65;12.95;;;;;;;3.36;79.95;99194.94;4957774;29;20051;-67
2021/12/11 09:16:45;;;;;;;28.95;13.35;;;;;;;3.37;80.19;99191.59;4940926;29;20094;-66
2021/12/11 09:19:21;;;;;;;33.75;15.20;;;;;;;3.30;80.20;99189.78;4957684;29;20059;-67
2021/12/11 09:21:55;;;;;;;34.22;15.63;;;;;;;3.15;80.17;99195.34;4957622;29;20047;-68
2021/12/11 09:24:31;;;;;;;32.22;12.68;;;;;;;2.87;79.44;99189.72;4957954;29;20051;-68
2021/12/11 09:27:11;;;;;;;26.50;12.82;;;;;;;2.75;79.77;99197.00;4957625;29;20047;-67
2021/12/11 09:29:48;;;;;;;32.75;12.88;;;;;;;2.81;80.62;99187.06;4957574;29;20047;-67
2021/12/11 09:32:27;;;;;;;26.65;12.73;;;;;;;2.89;80.56;99185.53;4957768;29;20059;-67
2021/12/11 09:35:02;;;;;;;26.08;12.25;;;;;;;2.97;81.01;99194.13;4957419;29;20054;-69
2021/12/11 09:37:37;;;;;;;28.48;12.75;;;;;;;2.95;80.34;99195.78;4957367;29;20051;-67
2021/12/11 09:40:11;;;;;;;25.65;12.60;;;;;;;2.99;80.78;99200.06;4957283;29;20059;-67
2021/12/11 09:42:40;;;;;;;26.13;11.73;;;;;;;3.00;80.08;99201.75;4957337;29;20055;-68
2021/12/11 09:45:18;;;;;;;29.73;11.85;;;;;;;3.12;80.52;99204.56;4957189;29;20047;-68
2021/12/11 09:47:51;;;;;;;26.40;12.82;;;;;;;3.15;80.72;99215.53;4957231;29;20122;-66
2021/12/11 09:50:35;;;;;;;27.98;12.85;;;;;;;3.11;80.39;99217.97;4957229;29;20102;-66
2021/12/11 09:53:07;;;;;;;33.88;14.57;;;;;;;3.03;80.91;99225.34;4957079;29;20047;-66
2021/12/11 09:55:39;;;;;;;32.33;12.88;;;;;;;2.95;80.65;99223.50;4940315;29;20051;-68
2021/12/11 09:58:33;;;;;;;27.67;13.18;;;;;;;2.92;80.07;99225.94;4957315;29;20079;-67
2021/12/11 10:01:30;;;;;;;31.27;13.80;;;;;;;2.80;80.63;99234.09;4935859;29;20054;-66
2021/12/11 10:04:09;;;;;;;29.00;12.88;;;;;;;2.86;80.40;99238.38;4879356;29;20064;-67
2021/12/11 10:06:51;;;;;;;32.60;14.55;;;;;;;2.85;79.84;99234.19;4879105;29;20049;-67
2021/12/11 10:09:27;;;;;;;31.40;14.40;;;;;;;2.93;79.94;99242.78;4878687;29;20060;-65
2021/12/11 10:12:10;;;;;;;27.55;13.85;;;;;;;3.04;79.91;99241.34;4879392;29;20071;-66
2021/12/11 10:14:50;;;;;;;28.58;13.90;;;;;;;3.15;80.81;99239.88;4878991;29;20133;-66
2021/12/11 10:17:25;;;;;;;;;;;;;;;3.19;80.34;99241.66;4879375;29;20064;-66
2021/12/11 10:20:02;;;;;;;28.90;13.20;;;;;;;3.19;79.65;99244.19;4863780;29;20035;-66
2021/12/11 10:22:37;;;;;;;30.55;14.48;;;;;;;3.26;80.45;99254.41;4916578;29;20054;-66
2021/12/11 10:25:14;;;;;;;28.50;12.93;;;;;;;3.30;79.89;99253.69;4935995;29;20052;-67
2021/12/11 10:27:47;;;;;;;30.38;13.27;;;;;;;3.34;80.04;99257.09;4936104;29;20050;-66
2021/12/11 10:30:24;;;;;;;30.98;13.65;;;;;;;3.37;79.98;99254.66;4937298;29;20083;-68
2021/12/11 10:32:56;;;;;;;27.90;13.98;;;;;;;3.35;79.57;99261.34;4937631;29;20052;-65
2021/12/11 10:35:37;;;;;;;33.55;16.08;;;;;;;3.41;79.97;99258.94;4936318;29;20406;-65
2021/12/11 10:38:12;;;;;;;33.83;14.15;;;;;;;3.45;79.79;99259.84;4937134;29;20051;-67
2021/12/11 10:40:45;;;;;;;28.80;14.27;;;;;;;3.45;79.89;99264.91;4937392;29;20059;-66
2021/12/11 10:43:19;;;;;;;27.33;12.38;;;;;;;3.44;79.60;99264.03;4937077;29;20062;-67
2021/12/11 10:45:54;;;;;;;28.48;12.07;;;;;;;3.43;79.32;99264.03;4937278;29;20101;-67
2021/12/11 10:48:31;;;;;;;27.45;11.95;;;;;;;3.44;79.16;99264.03;4937553;29;20051;-67
2021/12/11 10:51:11;;;;;;;27.02;12.77;;;;;;;3.43;78.70;99267.41;4937242;29;20417;-66
2021/12/11 10:53:42;;;;;;;26.58;12.23;;;;;;;3.46;78.71;99267.44;4936901;29;20131;-67
2021/12/11 10:56:19;;;;;;;26.65;12.23;;;;;;;3.50;78.69;99266.72;4936906;29;20058;-68
2021/12/11 10:58:53;;;;;;;28.80;13.13;;;;;;;3.53;78.79;99258.34;4936793;29;20047;-67
2021/12/11 11:01:29;;;;;;;30.02;12.20;;;;;;;3.58;78.97;99257.59;4937132;29;20047;-66
2021/12/11 11:04:07;;;;;;;25.60;13.23;;;;;;;3.55;78.17;99261.75;4936995;29;20048;-66
2021/12/11 11:06:42;;;;;;;26.95;13.00;;;;;;;3.60;79.07;99266.03;4936626;29;20059;-67
2021/12/11 11:09:17;;;;;;;28.83;12.95;;;;;;;3.50;79.21;99264.19;4951389;29;20059;-66
2021/12/11 11:11:52;;;;;;;25.60;12.80;;;;;;;3.53;79.06;99259.19;4936974;29;20051;-67
2021/12/11 11:14:25;;;;;;;25.58;11.27;;;;;;;3.48;78.36;99255.72;4936648;29;20059;-67
2021/12/11 11:17:07;;;;;;;24.25;11.35;;;;;;;3.53;78.25;99261.69;4936827;29;20044;-66
2021/12/11 11:19:40;;;;;;;28.15;12.98;;;;;;;3.58;78.09;99261.78;4936765;29;20406;-67
2021/12/11 11:22:16;;;;;;;25.88;12.55;;;;;;;3.60;78.24;99261.00;4936834;29;20115;-67
2021/12/11 11:24:52;;;;;;;24.77;12.10;;;;;;;3.61;78.01;99267.75;4936685;29;20466;-67
2021/12/11 11:27:22;;;;;;;24.58;11.70;;;;;;;3.54;78.30;99260.91;4934864;29;20056;-66
2021/12/11 11:29:54;;;;;;;;;;;;;;;3.55;78.39;99257.53;4936641;29;20048;-68
2021/12/11 11:32:31;;;;;;;;;;;;;;;3.60;78.38;99260.19;4936470;29;19923;-67
2021/12/11 11:35:07;;;;;;;;;;;;;;;3.57;78.35;99255.91;4937131;29;19922;-68
2021/12/11 11:37:47;;;;;;;;;;;;;;;3.63;78.10;99266.13;4936701;29;19923;-66
2021/12/11 11:40:20;;;;;;;;;;;;;;;3.65;78.37;99259.41;4937066;29;19965;-67
2021/12/11 11:42:52;;;;;;;;;;;;;;;3.68;77.86;99253.59;4936720;29;19945;-66
2021/12/11 11:45:21;;;;;;;;;;;;;;;3.72;78.15;99256.19;4936368;29;19974;-66
2021/12/11 11:47:51;;;;;;;;;;;;;;;3.71;77.38;99254.50;4936502;29;19923;-66
2021/12/11 11:50:23;;;;;;;;;;;;;;;3.74;77.95;99258.78;4937246;29;19923;-66
2021/12/11 11:52:55;;;;;;;;;;;;;;;3.72;77.36;99251.16;4936206;29;19923;-67
2021/12/11 11:55:26;;;;;;;;;;;;;;;3.75;77.80;99248.69;4936699;29;20383;-66
2021/12/11 11:57:55;;;;;;;;;;;;;;;3.82;77.19;99258.09;4936872;29;19923;-66
2021/12/11 12:00:28;;;;;;;;;;;;;;;3.72;77.19;99251.16;4936896;29;20114;-67
2021/12/11 12:03:01;;;;;;;;;;;;;;;3.74;77.58;99259.59;4950283;29;19932;-67
2021/12/11 12:05:35;;;;;;;;;;;;;;;3.77;77.00;99249.56;4970899;28;19952;-66
2021/12/11 12:08:09;;;;;;;;;;;;;;;3.71;76.36;99244.41;4955582;28;19922;-68
2021/12/11 12:10:38;;;;;;;;;;;;;;;3.55;77.06;99252.50;4974106;28;19932;-66
2021/12/11 12:13:10;;;;;;;;;;;;;;;3.46;77.30;99249.78;4974772;28;19932;-67
2021/12/11 12:15:40;;;;;;;;;;;;;;;3.48;77.03;99244.78;4974295;28;20364;-66
2021/12/11 12:18:11;;;;;;;;;;;;;;;3.60;77.34;99240.81;4974443;28;20479;-67